createdAt,value
2023-01-29T00:02:04.038Z,24.30
2023-01-29T00:04:31.281Z,25.70
2023-01-29T00:06:58.629Z,29.80
2023-01-29T00:09:25.264Z,25.90
2023-01-29T00:11:52.325Z,31.20
2023-01-29T00:14:19.166Z,26.80
2023-01-29T00:16:45.846Z,32.80
2023-01-29T00:19:12.662Z,32.10
2023-01-29T00:21:39.305Z,33.80
2023-01-29T00:24:06.032Z,32.60
2023-01-29T00:26:32.800Z,31.70
2023-01-29T00:29:02.468Z,32.20
2023-01-29T00:31:30.018Z,32.00
2023-01-29T00:33:56.992Z,35.50
2023-01-29T00:36:24.357Z,28.80
2023-01-29T00:38:58.021Z,32.30
2023-01-29T00:41:47.457Z,29.50
2023-01-29T00:44:33.873Z,30.30
2023-01-29T00:47:00.679Z,28.40
2023-01-29T00:49:27.358Z,30.20
2023-01-29T00:52:12.673Z,28.50
2023-01-29T00:54:39.411Z,29.60
2023-01-29T00:57:06.344Z,25.50
2023-01-29T00:59:33.256Z,27.80
2023-01-29T01:02:19.058Z,27.60
2023-01-29T01:04:46.019Z,35.50
2023-01-29T01:09:58.548Z,29.30
2023-01-29T01:12:25.596Z,28.60
2023-01-29T01:14:52.953Z,27.10
2023-01-29T01:17:19.693Z,31.90
2023-01-29T01:19:47.495Z,27.00
2023-01-29T01:22:14.108Z,23.80
2023-01-29T01:24:40.905Z,29.10
2023-01-29T01:27:08.207Z,29.70
2023-01-29T01:29:35.865Z,28.80
2023-01-29T01:32:02.509Z,36.80
2023-01-29T01:34:30.807Z,29.40
2023-01-29T01:36:58.978Z,25.60
2023-01-29T01:39:25.641Z,30.60
2023-01-29T01:41:55.706Z,26.10
2023-01-29T01:44:51.350Z,29.00
2023-01-29T01:47:43.659Z,32.00
2023-01-29T01:50:16.483Z,28.30
2023-01-29T01:52:46.154Z,25.70
2023-01-29T05:23:29.875Z,51.10
2023-01-29T05:26:36.616Z,42.30
2023-01-29T05:29:13.218Z,49.60
2023-01-29T05:31:46.082Z,60.80
2023-01-29T05:34:42.397Z,54.30
2023-01-29T05:37:13.085Z,54.20
2023-01-29T05:39:39.892Z,52.40
2023-01-29T05:42:06.925Z,51.30
2023-01-29T05:44:33.818Z,52.50
2023-01-29T05:47:02.160Z,49.90
2023-01-29T05:49:29.024Z,46.40
2023-01-29T05:51:55.868Z,52.80
2023-01-29T05:54:22.648Z,51.20
2023-01-29T05:56:49.352Z,47.80
2023-01-29T05:59:16.067Z,49.30
2023-01-29T06:01:43.102Z,44.10
2023-01-29T06:04:09.796Z,38.20
2023-01-29T06:06:40.413Z,46.00
2023-01-29T06:09:06.941Z,40.90
2023-01-29T06:11:33.875Z,50.50
2023-01-29T06:14:01.461Z,44.80
2023-01-29T06:16:28.414Z,39.40
2023-01-29T06:18:55.115Z,44.90
2023-01-29T06:21:21.807Z,43.90
2023-01-29T06:23:48.815Z,51.10
2023-01-29T06:26:15.718Z,41.50
2023-01-29T06:28:43.108Z,44.20
2023-01-29T06:31:37.945Z,47.10
2023-01-29T06:33:56.475Z,48.40
2023-01-29T06:36:23.108Z,52.50
2023-01-29T06:38:49.942Z,53.90
2023-01-29T06:41:18.256Z,51.20
2023-01-29T06:43:45.335Z,48.70
2023-01-29T06:46:12.094Z,57.40
2023-01-29T06:48:38.821Z,52.10
2023-01-29T06:51:06.622Z,47.60
2023-01-29T06:53:34.602Z,59.30
2023-01-29T06:56:01.276Z,54.60
2023-01-29T06:58:28.215Z,46.90
2023-01-29T07:01:04.725Z,53.80
2023-01-29T07:03:32.971Z,55.40
2023-01-29T07:05:59.559Z,47.00
2023-01-29T07:08:26.135Z,59.60
2023-01-29T07:10:52.753Z,57.80
2023-01-29T07:13:19.771Z,43.00
2023-01-29T07:15:46.430Z,50.30
2023-01-29T07:18:14.180Z,62.40
2023-01-29T07:20:41.413Z,55.90
2023-01-29T07:23:12.101Z,57.10
2023-01-29T07:28:06.458Z,49.60
2023-01-29T07:30:33.135Z,43.50
2023-01-29T07:33:07.726Z,50.10
2023-01-29T07:35:42.231Z,47.10
2023-01-29T07:38:09.437Z,60.30
2023-01-29T07:40:38.314Z,67.00
2023-01-29T07:43:06.280Z,53.80
2023-01-29T07:45:34.748Z,55.80
2023-01-29T07:48:01.501Z,57.70
2023-01-29T07:50:28.300Z,49.90
2023-01-29T07:52:55.218Z,51.60
2023-01-29T07:55:22.001Z,48.40
2023-01-29T07:57:57.428Z,46.10
2023-01-29T08:00:24.289Z,61.70
2023-01-29T08:02:51.002Z,51.80
2023-01-29T08:05:19.238Z,58.30
2023-01-29T08:07:49.345Z,56.20
2023-01-29T08:10:24.255Z,46.00
2023-01-29T08:12:56.339Z,54.00
2023-01-29T08:15:23.508Z,50.30
2023-01-29T08:20:37.626Z,53.70
2023-01-29T08:23:07.832Z,53.80
2023-01-29T08:25:34.924Z,49.90
2023-01-29T08:28:01.571Z,48.80
2023-01-29T08:30:30.358Z,46.10
2023-01-29T08:32:56.965Z,51.00
2023-01-29T08:35:24.122Z,44.50
2023-01-29T08:37:54.658Z,53.40
2023-01-29T08:40:21.546Z,57.80
2023-01-29T08:42:48.163Z,52.40
2023-01-29T08:45:15.024Z,51.80
2023-01-29T08:47:48.560Z,54.10
2023-01-29T08:50:16.717Z,54.40
2023-01-29T08:52:43.971Z,54.40
2023-01-29T08:55:12.167Z,60.60
2023-01-29T08:57:39.015Z,48.10
2023-01-29T09:00:06.824Z,57.80
2023-01-29T09:02:33.555Z,53.10
2023-01-29T09:05:00.639Z,55.70
2023-01-29T09:07:28.790Z,55.40
2023-01-29T09:09:55.788Z,43.60
2023-01-29T09:12:22.385Z,53.50
2023-01-29T09:14:49.069Z,52.40
2023-01-29T09:17:15.701Z,51.60
2023-01-29T09:19:42.382Z,60.20
2023-01-29T09:22:10.987Z,48.90
2023-01-29T09:24:38.663Z,56.60
2023-01-29T09:27:06.221Z,48.80
2023-01-29T09:29:35.800Z,52.80
2023-01-29T09:32:07.011Z,51.20
2023-01-29T09:34:37.326Z,42.80
2023-01-29T09:37:04.085Z,51.20
2023-01-29T09:39:30.650Z,48.70
2023-01-29T09:42:08.020Z,49.00
2023-01-29T09:45:03.341Z,50.90
2023-01-29T09:47:31.450Z,50.40
2023-01-29T09:50:05.122Z,43.80
2023-01-29T14:13:11.420Z,42.70
2023-01-29T14:15:40.158Z,36.00
2023-01-29T14:18:08.497Z,32.50
2023-01-29T14:20:48.819Z,33.30
2023-01-29T14:23:44.683Z,31.00
2023-01-29T14:26:26.866Z,32.90
2023-01-29T14:29:00.976Z,35.80
2023-01-29T14:31:59.185Z,28.10
2023-01-29T14:34:35.400Z,31.50
2023-01-29T14:37:26.504Z,32.10
2023-01-29T14:39:56.194Z,32.50
2023-01-29T14:42:25.094Z,37.40
2023-01-29T14:44:54.765Z,35.10
2023-01-29T14:47:38.551Z,40.20
2023-01-29T14:50:35.179Z,30.40
2023-01-29T14:53:45.235Z,36.10
2023-01-29T14:56:17.530Z,35.30
2023-01-29T14:59:18.076Z,39.20
2023-01-29T15:01:53.040Z,38.10
2023-01-29T15:04:25.939Z,35.00
2023-01-29T15:07:05.503Z,30.00
2023-01-29T15:09:41.961Z,34.40
2023-01-29T15:12:31.318Z,47.80
2023-01-29T15:15:37.675Z,45.20
2023-01-29T15:18:08.639Z,60.50
2023-01-29T15:20:38.572Z,62.00
2023-01-29T15:23:28.624Z,46.40
2023-01-29T15:25:58.767Z,46.80
2023-01-29T15:28:26.872Z,43.60
2023-01-29T15:30:57.164Z,38.00
2023-01-29T15:33:25.903Z,35.90
2023-01-29T15:36:06.698Z,34.10
2023-01-29T15:38:35.736Z,31.90
2023-01-29T15:41:18.497Z,35.20
2023-01-29T15:46:22.869Z,35.50
2023-01-29T15:48:51.652Z,37.30
2023-01-29T15:51:24.067Z,33.70
2023-01-29T15:53:57.392Z,37.80
2023-01-29T15:56:29.702Z,32.90
2023-01-29T16:01:27.519Z,39.60
2023-01-29T16:03:59.120Z,34.80
2023-01-29T16:06:27.436Z,48.80
2023-01-29T16:08:55.680Z,47.10
2023-01-29T16:11:23.924Z,42.70
2023-01-29T16:13:52.029Z,46.20
2023-01-29T16:16:29.196Z,39.50
2023-01-29T16:19:00.775Z,34.90
2023-01-29T16:21:37.445Z,46.00
2023-01-29T16:24:11.875Z,39.70
2023-01-29T16:26:43.458Z,36.00
2023-01-29T16:29:13.447Z,47.10
2023-01-29T16:31:42.537Z,40.80
2023-01-29T16:34:34.600Z,47.70
2023-01-29T16:37:04.474Z,36.90
2023-01-29T16:39:38.289Z,34.40
2023-01-29T16:42:13.085Z,43.00
2023-01-29T16:44:41.253Z,40.80
2023-01-29T16:47:33.017Z,47.00
2023-01-29T16:50:20.035Z,53.50
2023-01-29T16:53:33.322Z,43.30
2023-01-29T16:56:02.947Z,50.30
2023-01-29T16:58:31.229Z,41.20
2023-01-29T17:01:05.320Z,42.10
2023-01-29T17:03:34.099Z,40.20
2023-01-29T17:06:12.026Z,55.00
2023-01-29T17:08:43.815Z,40.70
2023-01-29T17:11:13.100Z,36.10
2023-01-29T17:13:42.983Z,38.80
2023-01-29T17:16:21.358Z,31.90
2023-01-29T17:18:50.145Z,30.20
2023-01-29T17:21:18.221Z,31.70
2023-01-29T17:23:46.369Z,30.50
2023-01-29T17:26:14.783Z,31.90
2023-01-29T17:28:42.816Z,28.70
2023-01-29T17:31:10.927Z,25.70
2023-01-29T17:33:42.937Z,27.10
2023-01-29T17:36:12.582Z,24.10
2023-01-29T17:38:43.307Z,24.40
2023-01-29T17:41:27.352Z,26.00
2023-01-29T17:43:55.932Z,30.30
2023-01-29T17:46:28.192Z,27.30
2023-01-29T17:48:56.352Z,28.90
2023-01-29T17:51:25.093Z,28.10
2023-01-29T17:53:53.328Z,29.30
2023-01-29T21:51:38.675Z,15.80
2023-01-29T21:54:07.267Z,19.90
2023-01-29T21:56:35.371Z,16.50
2023-01-29T21:59:03.352Z,15.90
2023-01-29T22:01:41.471Z,18.20
2023-01-29T22:04:09.844Z,21.80
2023-01-29T22:06:38.395Z,17.20
2023-01-29T22:09:07.509Z,21.60
2023-01-29T22:11:36.288Z,22.00
2023-01-29T22:14:05.081Z,17.30
2023-01-29T22:16:33.436Z,19.40
2023-01-29T22:19:01.571Z,24.00
2023-01-29T22:21:29.904Z,20.20
2023-01-29T22:23:58.078Z,21.30
2023-01-29T22:26:26.350Z,24.50
2023-01-29T22:28:54.524Z,20.40
2023-01-29T22:31:22.598Z,21.30
2023-01-29T22:33:54.357Z,19.70
2023-01-29T22:36:22.373Z,20.50
2023-01-29T22:38:50.601Z,17.50
2023-01-29T22:41:18.681Z,21.90
2023-01-29T22:43:46.747Z,19.60
2023-01-29T22:46:14.951Z,16.40
2023-01-29T22:48:45.065Z,15.10
2023-01-29T22:51:13.970Z,14.10
2023-01-29T22:53:52.864Z,16.10
2023-01-29T22:56:25.299Z,17.00
2023-01-29T22:58:55.072Z,15.90
2023-01-29T23:01:28.009Z,20.90
2023-01-29T23:03:56.718Z,20.40
2023-01-29T23:06:25.017Z,18.50
2023-01-29T23:08:53.068Z,18.90
2023-01-29T23:11:21.616Z,20.00
2023-01-29T23:13:54.309Z,17.40
2023-01-29T23:16:26.261Z,19.30
2023-01-29T23:18:56.229Z,16.30
2023-01-29T23:21:25.277Z,15.60
2023-01-29T23:23:58.344Z,18.40
2023-01-29T23:26:45.244Z,18.10
2023-01-29T23:29:13.449Z,20.80
2023-01-29T23:31:41.633Z,20.00
2023-01-29T23:34:09.965Z,21.50
2023-01-29T23:36:38.131Z,20.30
2023-01-29T23:39:06.479Z,20.90
2023-01-29T23:41:35.559Z,19.10
2023-01-29T23:44:04.470Z,19.80
2023-01-29T23:46:32.685Z,17.40
2023-01-29T23:49:00.930Z,17.70
2023-01-29T23:51:29.211Z,18.80
2023-01-29T23:53:57.399Z,15.90
2023-01-29T23:56:25.659Z,20.90
2023-01-29T23:58:56.820Z,17.90
